Capetan Vassilis — C6S2085 — position and weather

sailwx.info

Track history (hours):
 
Tides and Currents Weather Stations Pressure Air Temp Water Temp Dewpoint Dewpoint Depression Visibility Wind Speed Wind Dir Waves Ship Positions

Capetan Vassilis

Last reported at 2015-May-27 21:33 UTC. Time now 2015-May-28 16:05 UTC.
Position N 50°09' W 002°00'.

Length 191 m; draft 10.3 m.

MMSI: 311552000.

Date/timePositionNaut miles runAvg speedWind from/ knotsBaromVisibWave heightAir tempDewpointWater temp
2015-May-27 21:33N 50°09' W 002°00'2813.7
2015-May-27 19:30N 50°17' W 001°18'1212.9
2015-May-27 18:33N 50°20' W 000°60'1211.9
2015-May-27 17:33N 50°23' W 000°42'1211.4
2015-May-27 16:31N 50°27' W 000°24'1311.3
2015-May-27 15:24N 50°30' W 000°05'1011.5
2015-May-27 14:33N 50°33' E 000°10'1212.0
2015-May-27 13:33N 50°36' E 000°28'1312.7
2015-May-27 12:33N 50°42' E 000°45'1413.4
2015-May-27 11:33N 50°51' E 001°02'1313.4
2015-May-27 10:34N 50°59' E 001°18'1312.6
2015-May-27 09:33N 51°07' E 001°33'1211.6
2015-May-27 08:33N 51°15' E 001°47'1211.5
2015-May-27 07:33N 51°25' E 001°57'1211.8
2015-May-27 06:33N 51°34' E 002°09'1312.5
2015-May-27 05:29N 51°44' E 002°24'5513.3
2015-May-27 01:18N 52°27' E 003°20'1312.4
2015-May-27 00:14N 52°38' E 003°32'6911.9
2015-May-26 18:27N 53°34' E 004°38'1513.2
2015-May-26 17:19N 53°48' E 004°47'1213.0
2015-May-26 16:24N 53°60' E 004°53'1712.8
2015-May-26 15:06N 54°15' E 005°02'26911.9
2015-May-25 16:29N 57°47' E 009°58'1011.0
2015-May-25 15:33N 57°48' E 010°17'1110.7
2015-May-25 14:33N 57°48' E 010°38'8 8.3
2015-May-25 13:33N 57°43' E 010°50'5 4.8
2015-May-25 12:33N 57°42' E 010°41'1 1.1
2015-May-25 11:14N 57°42' E 010°39'0 0.0
2015-May-25 10:26N 57°42' E 010°39'0 0.0
2015-May-25 09:08N 57°42' E 010°39'0 0.0
2015-May-25 08:29N 57°42' E 010°39'0 0.0
2015-May-25 07:14N 57°42' E 010°39'0 0.0
2015-May-25 06:14N 57°42' E 010°39'0 0.1
2015-May-25 05:24N 57°42' E 010°39'3 3.3
2015-May-25 04:32N 57°42' E 010°44'1111.5
2015-May-25 03:33N 57°38' E 011°04'1111.3
2015-May-25 02:33N 57°33' E 011°21'1211.8
2015-May-25 01:33N 57°22' E 011°31'1212.3
2015-May-25 00:33N 57°10' E 011°39'1212.1
2015-May-24 23:33N 56°59' E 011°46'1212.1
2015-May-24 22:33N 56°48' E 011°53'1111.3
2015-May-24 21:33N 56°39' E 011°40'2512.4
2015-May-24 19:31N 56°22' E 011°05'10311.5
2015-May-24 10:33N 54°39' E 010°51'1211.6
2015-May-24 09:33N 54°36' E 011°10'1212.1
2015-May-24 08:33N 54°31' E 011°29'1211.9
2015-May-24 07:33N 54°26' E 011°48'1211.8
2015-May-24 06:33N 54°26' E 012°08'1111.1
2015-May-24 05:33N 54°37' E 012°15'1212.0
2015-May-24 04:33N 54°43' E 012°32'1212.0
2015-May-24 03:33N 54°49' E 012°50'1312.4
2015-May-24 02:30N 54°53' E 013°12'1312.5
2015-May-24 01:27N 54°57' E 013°33'1412.3
2015-May-24 00:18N 55°02' E 013°56'911.9
2015-May-23 23:31N 55°08' E 014°10'1212.5
2015-May-23 22:33N 55°17' E 014°22'1312.6
2015-May-23 21:30N 55°27' E 014°38'1212.9
2015-May-23 20:33N 55°34' E 014°57'1312.6
2015-May-23 19:29N 55°40' E 015°17'10111.3
2015-May-23 10:30N 56°59' E 017°13'1212.5
2015-May-23 09:33N 57°10' E 017°18'1212.3
2015-May-23 08:33N 57°22' E 017°23'1211.9
2015-May-23 07:33N 57°31' E 017°08'1211.8
2015-May-23 06:33N 57°22' E 016°53'1110.8
2015-May-23 05:33N 57°16' E 016°38'5 4.7
2015-May-23 04:33N 57°16' E 016°29'0 0.2
2015-May-23 03:31N 57°16' E 016°29'0 0.0
2015-May-23 02:31N 57°16' E 016°29'0 0.0
2015-May-23 01:28N 57°16' E 016°29'0 0.0
2015-May-23 00:31N 57°16' E 016°29'0 0.0
2015-May-22 23:31N 57°16' E 016°29'0 0.0
2015-May-22 22:31N 57°16' E 016°29'0 0.0
2015-May-22 21:34N 57°16' E 016°29'0 0.0
2015-May-22 20:33N 57°16' E 016°29'0 0.0
2015-May-22 19:33N 57°16' E 016°29'0 0.0
2015-May-22 18:33N 57°16' E 016°29'0 0.0
2015-May-22 17:33N 57°16' E 016°29'0 0.0
2015-May-22 16:33N 57°16' E 016°29'0 0.0
2015-May-22 15:33N 57°16' E 016°29'0 0.0
2015-May-22 14:33N 57°16' E 016°29'0 0.0
2015-May-22 13:33N 57°16' E 016°29'0 0.0
2015-May-22 12:33N 57°16' E 016°29'0 0.0
2015-May-22 11:30N 57°16' E 016°29'0 0.0
2015-May-22 10:33N 57°16' E 016°29'0 0.0
2015-May-22 09:33N 57°16' E 016°29'0 0.0
2015-May-22 08:33N 57°16' E 016°29'0 0.0
2015-May-22 07:33N 57°16' E 016°29'0 0.0
2015-May-22 06:33N 57°16' E 016°29'0 0.0
2015-May-22 05:33N 57°16' E 016°29'0 0.0
2015-May-22 04:33N 57°16' E 016°29'0 0.0
2015-May-22 03:33N 57°16' E 016°29'0 0.0
2015-May-22 02:33N 57°16' E 016°29'0 0.0
2015-May-22 01:33N 57°16' E 016°29'0 0.0
2015-May-22 00:33N 57°16' E 016°29'0 0.0
2015-May-21 23:33N 57°16' E 016°29'0 0.0
2015-May-21 22:33N 57°16' E 016°29'0 0.0
2015-May-21 21:33N 57°16' E 016°29'0 0.0
2015-May-21 20:33N 57°16' E 016°29'0 0.0
2015-May-21 19:33N 57°16' E 016°29'0 0.0
2015-May-21 18:33N 57°16' E 016°29'0 0.0
2015-May-21 17:33N 57°16' E 016°29'0 0.0
2015-May-21 16:33N 57°16' E 016°29'0 0.0
2015-May-21 15:33N 57°16' E 016°29'0 0.0
2015-May-21 14:33N 57°16' E 016°29'0 0.0
2015-May-21 13:33N 57°16' E 016°29'0 0.0
2015-May-21 12:33N 57°16' E 016°29'0 0.0
2015-May-21 11:33N 57°16' E 016°29'0 0.0
2015-May-21 10:33N 57°16' E 016°29'0 0.0
2015-May-21 09:33N 57°16' E 016°29'0 0.0
2015-May-21 08:32N 57°16' E 016°29'0 0.0
2015-May-21 07:32N 57°16' E 016°29'0 0.0
2015-May-21 06:32N 57°16' E 016°29'0 0.0
2015-May-21 05:32N 57°16' E 016°29'0 0.0
2015-May-21 04:32N 57°16' E 016°29'0 0.0
2015-May-21 03:32N 57°16' E 016°29'0 0.0
2015-May-21 02:32N 57°16' E 016°29'0 0.0
2015-May-21 01:32N 57°16' E 016°29'0 0.0
2015-May-21 00:32N 57°16' E 016°29'0 0.0
2015-May-20 23:32N 57°16' E 016°29'0 0.0
2015-May-20 22:32N 57°16' E 016°29'0 0.0
2015-May-20 21:32N 57°16' E 016°29'0 0.0
2015-May-20 20:32N 57°16' E 016°29'0 0.0
2015-May-20 19:32N 57°16' E 016°29'0 0.0
2015-May-20 18:32N 57°16' E 016°29'0 0.0
2015-May-20 17:32N 57°16' E 016°29'0 0.0
2015-May-20 16:32N 57°16' E 016°29'0 0.0
2015-May-20 15:32N 57°16' E 016°29'0 0.0
2015-May-20 14:32N 57°16' E 016°29'0 0.0
2015-May-20 13:32N 57°16' E 016°29'0 0.0
2015-May-20 12:31N 57°16' E 016°29'0 0.0
2015-May-20 11:31N 57°16' E 016°29'0 0.0
2015-May-20 10:31N 57°16' E 016°29'0 0.0
2015-May-20 09:31N 57°16' E 016°29'0 0.0
2015-May-20 08:31N 57°16' E 016°29'0 0.0
2015-May-20 07:28N 57°16' E 016°29'0 0.0
2015-May-20 06:31N 57°16' E 016°29'0 0.0
2015-May-20 05:31N 57°16' E 016°29'0 0.0
2015-May-20 04:31N 57°16' E 016°29'0 0.0
2015-May-20 03:31N 57°16' E 016°29'0 0.0
2015-May-20 02:31N 57°16' E 016°29'0 0.0
2015-May-20 01:31N 57°16' E 016°29'0 0.0
2015-May-20 00:31N 57°16' E 016°29'0 0.0
2015-May-19 23:31N 57°16' E 016°29'0 0.0
2015-May-19 22:33N 57°16' E 016°29'0 0.0
2015-May-19 21:33N 57°16' E 016°29'0 0.0
2015-May-19 20:33N 57°16' E 016°29'0 0.0
2015-May-19 19:33N 57°16' E 016°29'0 0.0
2015-May-19 18:33N 57°16' E 016°29'0 0.0
2015-May-19 17:33N 57°16' E 016°29'0 0.0
2015-May-19 16:33N 57°16' E 016°29'0 0.0
2015-May-19 15:33N 57°16' E 016°29'0 0.0
2015-May-19 14:33N 57°16' E 016°29'0 0.0
2015-May-19 13:33N 57°16' E 016°29'0 0.0
2015-May-19 12:33N 57°16' E 016°29'0 0.0
2015-May-19 11:33N 57°16' E 016°29'0 0.0
2015-May-19 10:33N 57°16' E 016°29'0 0.0
2015-May-19 09:33N 57°16' E 016°29'0 0.0
2015-May-19 08:33N 57°16' E 016°29'0 0.0
2015-May-19 07:33N 57°16' E 016°29'0 0.0
2015-May-19 06:33N 57°16' E 016°29'0 0.0
2015-May-19 05:30N 57°16' E 016°29'0 0.0
2015-May-19 04:30N 57°16' E 016°29'0 0.0
2015-May-19 03:33N 57°16' E 016°29'0 0.0
2015-May-19 02:33N 57°16' E 016°29'0 0.0
2015-May-19 01:33N 57°16' E 016°29'0 0.0
2015-May-19 00:33N 57°16' E 016°29'0 0.0
2015-May-18 23:30N 57°16' E 016°29'0 0.0
2015-May-18 22:30N 57°16' E 016°29'0 0.0
2015-May-18 21:33N 57°16' E 016°29'0 0.0
2015-May-18 20:33N 57°16' E 016°29'0 0.0
2015-May-18 19:33N 57°16' E 016°29'0 0.0
2015-May-18 18:33N 57°16' E 016°29'0 0.0
2015-May-18 17:33N 57°16' E 016°29'0 0.0
2015-May-18 16:33N 57°16' E 016°29'0 0.0
2015-May-18 15:33N 57°16' E 016°29'0 0.0
2015-May-18 14:30N 57°16' E 016°29'0 0.0
2015-May-18 13:33N 57°16' E 016°29'0 0.0
2015-May-18 12:33N 57°16' E 016°29'0 0.0
2015-May-18 11:32N 57°16' E 016°29'0 0.0
2015-May-18 10:32N 57°16' E 016°29'0 0.0
2015-May-18 08:26N 57°16' E 016°29'0 0.0
2015-May-18 07:32N 57°16' E 016°29'0 0.0
2015-May-18 06:32N 57°16' E 016°29'0 0.0
2015-May-18 05:32N 57°16' E 016°29'0 0.0
2015-May-18 04:32N 57°16' E 016°29'0 0.0
2015-May-18 03:32N 57°16' E 016°29'0 0.0
2015-May-18 02:32N 57°16' E 016°29'0 0.0
2015-May-18 01:32N 57°16' E 016°29'0 0.0
2015-May-18 00:32N 57°16' E 016°29'0 0.0
2015-May-17 23:32N 57°16' E 016°29'0 0.0
2015-May-17 22:32N 57°16' E 016°29'  
Track history (hours):
 
Tides and Currents Weather Stations Pressure Air Temp Water Temp Dewpoint Dewpoint Depression Visibility Wind Speed Wind Dir Waves Ship Positions

Capetan Vassilis

Last reported at 2015-May-27 21:33 UTC. Time now 2015-May-28 16:05 UTC.
Position N 50°09' W 002°00'.

Length 191 m; draft 10.3 m.

MMSI: 311552000.

Date/timePositionNaut miles runAvg speedWind from/ knotsBaromVisibWave heightAir tempDewpointWater temp
2015-May-27 21:33N 50°09' W 002°00'2813.7
2015-May-27 19:30N 50°17' W 001°18'1212.9
2015-May-27 18:33N 50°20' W 000°60'1211.9
2015-May-27 17:33N 50°23' W 000°42'1211.4
2015-May-27 16:31N 50°27' W 000°24'1311.3
2015-May-27 15:24N 50°30' W 000°05'1011.5
2015-May-27 14:33N 50°33' E 000°10'1212.0
2015-May-27 13:33N 50°36' E 000°28'1312.7
2015-May-27 12:33N 50°42' E 000°45'1413.4
2015-May-27 11:33N 50°51' E 001°02'1313.4
2015-May-27 10:34N 50°59' E 001°18'1312.6
2015-May-27 09:33N 51°07' E 001°33'1211.6
2015-May-27 08:33N 51°15' E 001°47'1211.5
2015-May-27 07:33N 51°25' E 001°57'1211.8
2015-May-27 06:33N 51°34' E 002°09'1312.5
2015-May-27 05:29N 51°44' E 002°24'5513.3
2015-May-27 01:18N 52°27' E 003°20'1312.4
2015-May-27 00:14N 52°38' E 003°32'6911.9
2015-May-26 18:27N 53°34' E 004°38'1513.2
2015-May-26 17:19N 53°48' E 004°47'1213.0
2015-May-26 16:24N 53°60' E 004°53'1712.8
2015-May-26 15:06N 54°15' E 005°02'26911.9
2015-May-25 16:29N 57°47' E 009°58'1011.0
2015-May-25 15:33N 57°48' E 010°17'1110.7
2015-May-25 14:33N 57°48' E 010°38'8 8.3
2015-May-25 13:33N 57°43' E 010°50'5 4.8
2015-May-25 12:33N 57°42' E 010°41'1 1.1
2015-May-25 11:14N 57°42' E 010°39'0 0.0
2015-May-25 10:26N 57°42' E 010°39'0 0.0
2015-May-25 09:08N 57°42' E 010°39'0 0.0
2015-May-25 08:29N 57°42' E 010°39'0 0.0
2015-May-25 07:14N 57°42' E 010°39'0 0.0
2015-May-25 06:14N 57°42' E 010°39'0 0.1
2015-May-25 05:24N 57°42' E 010°39'3 3.3
2015-May-25 04:32N 57°42' E 010°44'1111.5
2015-May-25 03:33N 57°38' E 011°04'1111.3
2015-May-25 02:33N 57°33' E 011°21'1211.8
2015-May-25 01:33N 57°22' E 011°31'1212.3
2015-May-25 00:33N 57°10' E 011°39'1212.1
2015-May-24 23:33N 56°59' E 011°46'1212.1
2015-May-24 22:33N 56°48' E 011°53'1111.3
2015-May-24 21:33N 56°39' E 011°40'2512.4
2015-May-24 19:31N 56°22' E 011°05'10311.5
2015-May-24 10:33N 54°39' E 010°51'1211.6
2015-May-24 09:33N 54°36' E 011°10'1212.1
2015-May-24 08:33N 54°31' E 011°29'1211.9
2015-May-24 07:33N 54°26' E 011°48'1211.8
2015-May-24 06:33N 54°26' E 012°08'1111.1
2015-May-24 05:33N 54°37' E 012°15'1212.0
2015-May-24 04:33N 54°43' E 012°32'1212.0
2015-May-24 03:33N 54°49' E 012°50'1312.4
2015-May-24 02:30N 54°53' E 013°12'1312.5
2015-May-24 01:27N 54°57' E 013°33'1412.3
2015-May-24 00:18N 55°02' E 013°56'911.9
2015-May-23 23:31N 55°08' E 014°10'1212.5
2015-May-23 22:33N 55°17' E 014°22'1312.6
2015-May-23 21:30N 55°27' E 014°38'1212.9
2015-May-23 20:33N 55°34' E 014°57'1312.6
2015-May-23 19:29N 55°40' E 015°17'10111.3
2015-May-23 10:30N 56°59' E 017°13'1212.5
2015-May-23 09:33N 57°10' E 017°18'1212.3
2015-May-23 08:33N 57°22' E 017°23'1211.9
2015-May-23 07:33N 57°31' E 017°08'1211.8
2015-May-23 06:33N 57°22' E 016°53'1110.8
2015-May-23 05:33N 57°16' E 016°38'5 4.7
2015-May-23 04:33N 57°16' E 016°29'0 0.2
2015-May-23 03:31N 57°16' E 016°29'0 0.0
2015-May-23 02:31N 57°16' E 016°29'0 0.0
2015-May-23 01:28N 57°16' E 016°29'0 0.0
2015-May-23 00:31N 57°16' E 016°29'0 0.0
2015-May-22 23:31N 57°16' E 016°29'0 0.0
2015-May-22 22:31N 57°16' E 016°29'0 0.0
2015-May-22 21:34N 57°16' E 016°29'0 0.0
2015-May-22 20:33N 57°16' E 016°29'0 0.0
2015-May-22 19:33N 57°16' E 016°29'0 0.0
2015-May-22 18:33N 57°16' E 016°29'0 0.0
2015-May-22 17:33N 57°16' E 016°29'0 0.0
2015-May-22 16:33N 57°16' E 016°29'0 0.0
2015-May-22 15:33N 57°16' E 016°29'0 0.0
2015-May-22 14:33N 57°16' E 016°29'0 0.0
2015-May-22 13:33N 57°16' E 016°29'0 0.0
2015-May-22 12:33N 57°16' E 016°29'0 0.0
2015-May-22 11:30N 57°16' E 016°29'0 0.0
2015-May-22 10:33N 57°16' E 016°29'0 0.0
2015-May-22 09:33N 57°16' E 016°29'0 0.0
2015-May-22 08:33N 57°16' E 016°29'0 0.0
2015-May-22 07:33N 57°16' E 016°29'0 0.0
2015-May-22 06:33N 57°16' E 016°29'0 0.0
2015-May-22 05:33N 57°16' E 016°29'0 0.0
2015-May-22 04:33N 57°16' E 016°29'0 0.0
2015-May-22 03:33N 57°16' E 016°29'0 0.0
2015-May-22 02:33N 57°16' E 016°29'0 0.0
2015-May-22 01:33N 57°16' E 016°29'0 0.0
2015-May-22 00:33N 57°16' E 016°29'0 0.0
2015-May-21 23:33N 57°16' E 016°29'0 0.0
2015-May-21 22:33N 57°16' E 016°29'0 0.0
2015-May-21 21:33N 57°16' E 016°29'0 0.0
2015-May-21 20:33N 57°16' E 016°29'0 0.0
2015-May-21 19:33N 57°16' E 016°29'0 0.0
2015-May-21 18:33N 57°16' E 016°29'0 0.0
2015-May-21 17:33N 57°16' E 016°29'0 0.0
2015-May-21 16:33N 57°16' E 016°29'0 0.0
2015-May-21 15:33N 57°16' E 016°29'0 0.0
2015-May-21 14:33N 57°16' E 016°29'0 0.0
2015-May-21 13:33N 57°16' E 016°29'0 0.0
2015-May-21 12:33N 57°16' E 016°29'0 0.0
2015-May-21 11:33N 57°16' E 016°29'0 0.0
2015-May-21 10:33N 57°16' E 016°29'0 0.0
2015-May-21 09:33N 57°16' E 016°29'0 0.0
2015-May-21 08:32N 57°16' E 016°29'0 0.0
2015-May-21 07:32N 57°16' E 016°29'0 0.0
2015-May-21 06:32N 57°16' E 016°29'0 0.0
2015-May-21 05:32N 57°16' E 016°29'0 0.0
2015-May-21 04:32N 57°16' E 016°29'0 0.0
2015-May-21 03:32N 57°16' E 016°29'0 0.0
2015-May-21 02:32N 57°16' E 016°29'0 0.0
2015-May-21 01:32N 57°16' E 016°29'0 0.0
2015-May-21 00:32N 57°16' E 016°29'0 0.0
2015-May-20 23:32N 57°16' E 016°29'0 0.0
2015-May-20 22:32N 57°16' E 016°29'0 0.0
2015-May-20 21:32N 57°16' E 016°29'0 0.0
2015-May-20 20:32N 57°16' E 016°29'0 0.0
2015-May-20 19:32N 57°16' E 016°29'0 0.0
2015-May-20 18:32N 57°16' E 016°29'0 0.0
2015-May-20 17:32N 57°16' E 016°29'0 0.0
2015-May-20 16:32N 57°16' E 016°29'0 0.0
2015-May-20 15:32N 57°16' E 016°29'0 0.0
2015-May-20 14:32N 57°16' E 016°29'0 0.0
2015-May-20 13:32N 57°16' E 016°29'0 0.0
2015-May-20 12:31N 57°16' E 016°29'0 0.0
2015-May-20 11:31N 57°16' E 016°29'0 0.0
2015-May-20 10:31N 57°16' E 016°29'0 0.0
2015-May-20 09:31N 57°16' E 016°29'0 0.0
2015-May-20 08:31N 57°16' E 016°29'0 0.0
2015-May-20 07:28N 57°16' E 016°29'0 0.0
2015-May-20 06:31N 57°16' E 016°29'0 0.0
2015-May-20 05:31N 57°16' E 016°29'0 0.0
2015-May-20 04:31N 57°16' E 016°29'0 0.0
2015-May-20 03:31N 57°16' E 016°29'0 0.0
2015-May-20 02:31N 57°16' E 016°29'0 0.0
2015-May-20 01:31N 57°16' E 016°29'0 0.0
2015-May-20 00:31N 57°16' E 016°29'0 0.0
2015-May-19 23:31N 57°16' E 016°29'0 0.0
2015-May-19 22:33N 57°16' E 016°29'0 0.0
2015-May-19 21:33N 57°16' E 016°29'0 0.0
2015-May-19 20:33N 57°16' E 016°29'0 0.0
2015-May-19 19:33N 57°16' E 016°29'0 0.0
2015-May-19 18:33N 57°16' E 016°29'0 0.0
2015-May-19 17:33N 57°16' E 016°29'0 0.0
2015-May-19 16:33N 57°16' E 016°29'0 0.0
2015-May-19 15:33N 57°16' E 016°29'0 0.0
2015-May-19 14:33N 57°16' E 016°29'0 0.0
2015-May-19 13:33N 57°16' E 016°29'0 0.0
2015-May-19 12:33N 57°16' E 016°29'0 0.0
2015-May-19 11:33N 57°16' E 016°29'0 0.0
2015-May-19 10:33N 57°16' E 016°29'0 0.0
2015-May-19 09:33N 57°16' E 016°29'0 0.0
2015-May-19 08:33N 57°16' E 016°29'0 0.0
2015-May-19 07:33N 57°16' E 016°29'0 0.0
2015-May-19 06:33N 57°16' E 016°29'0 0.0
2015-May-19 05:30N 57°16' E 016°29'0 0.0
2015-May-19 04:30N 57°16' E 016°29'0 0.0
2015-May-19 03:33N 57°16' E 016°29'0 0.0
2015-May-19 02:33N 57°16' E 016°29'0 0.0
2015-May-19 01:33N 57°16' E 016°29'0 0.0
2015-May-19 00:33N 57°16' E 016°29'0 0.0
2015-May-18 23:30N 57°16' E 016°29'0 0.0
2015-May-18 22:30N 57°16' E 016°29'0 0.0
2015-May-18 21:33N 57°16' E 016°29'0 0.0
2015-May-18 20:33N 57°16' E 016°29'0 0.0
2015-May-18 19:33N 57°16' E 016°29'0 0.0
2015-May-18 18:33N 57°16' E 016°29'0 0.0
2015-May-18 17:33N 57°16' E 016°29'0 0.0
2015-May-18 16:33N 57°16' E 016°29'0 0.0
2015-May-18 15:33N 57°16' E 016°29'0 0.0
2015-May-18 14:30N 57°16' E 016°29'0 0.0
2015-May-18 13:33N 57°16' E 016°29'0 0.0
2015-May-18 12:33N 57°16' E 016°29'0 0.0
2015-May-18 11:32N 57°16' E 016°29'0 0.0
2015-May-18 10:32N 57°16' E 016°29'0 0.0
2015-May-18 08:26N 57°16' E 016°29'0 0.0
2015-May-18 07:32N 57°16' E 016°29'0 0.0
2015-May-18 06:32N 57°16' E 016°29'0 0.0
2015-May-18 05:32N 57°16' E 016°29'0 0.0
2015-May-18 04:32N 57°16' E 016°29'0 0.0
2015-May-18 03:32N 57°16' E 016°29'0 0.0
2015-May-18 02:32N 57°16' E 016°29'0 0.0
2015-May-18 01:32N 57°16' E 016°29'0 0.0
2015-May-18 00:32N 57°16' E 016°29'0 0.0
2015-May-17 23:32N 57°16' E 016°29'0 0.0
2015-May-17 22:32N 57°16' E 016°29'  

Dump ship's entire track history